createdAt,value
2022-08-02T00:00:01.616Z,1015.39
2022-08-02T00:01:01.603Z,1015.40
2022-08-02T00:02:01.646Z,1015.36
2022-08-02T00:03:01.587Z,1015.39
2022-08-02T00:04:01.567Z,1015.44
2022-08-02T00:05:01.545Z,1015.43
2022-08-02T00:06:01.530Z,1015.41
2022-08-02T00:07:01.521Z,1015.36
2022-08-02T00:08:01.502Z,1015.42
2022-08-02T00:09:01.531Z,1015.44
2022-08-02T00:10:01.472Z,1015.44
2022-08-02T00:11:01.477Z,1015.49
2022-08-02T00:12:01.466Z,1015.53
2022-08-02T00:13:01.440Z,1015.57
2022-08-02T00:14:01.454Z,1015.47
2022-08-02T00:15:01.415Z,1015.48
2022-08-02T00:16:01.392Z,1015.55
2022-08-02T00:17:01.383Z,1015.53
2022-08-02T00:18:01.386Z,1015.52
2022-08-02T00:19:01.375Z,1015.49
2022-08-02T00:20:01.374Z,1015.53
2022-08-02T00:21:01.330Z,1015.49
2022-08-02T00:22:01.326Z,1015.52
2022-08-02T00:23:01.320Z,1015.52
2022-08-02T00:24:28.244Z,1015.53
2022-08-02T00:25:02.299Z,1015.54
2022-08-02T00:26:01.286Z,1015.57
2022-08-02T00:27:01.263Z,1015.55
2022-08-02T00:28:01.255Z,1015.54
2022-08-02T00:29:01.235Z,1015.57
2022-08-02T00:30:01.258Z,1015.57
2022-08-02T00:31:01.213Z,1015.52
2022-08-02T00:32:01.192Z,1015.51
2022-08-02T00:33:01.180Z,1015.51
2022-08-02T00:34:05.295Z,1015.48
2022-08-02T00:35:02.171Z,1015.45
2022-08-02T00:36:01.158Z,1015.49
2022-08-02T00:37:01.135Z,1015.47
2022-08-02T00:38:01.103Z,1015.44
2022-08-02T00:39:01.116Z,1015.49
2022-08-02T00:40:01.111Z,1015.52
2022-08-02T00:41:01.085Z,1015.43
2022-08-02T00:42:01.067Z,1015.43
2022-08-02T00:43:01.070Z,1015.42
2022-08-02T00:44:01.031Z,1015.45
2022-08-02T00:45:01.035Z,1015.46
2022-08-02T00:46:03.110Z,1015.42
2022-08-02T00:47:01.004Z,1015.44
2022-08-02T00:48:01.003Z,1015.40
2022-08-02T00:49:01.054Z,1015.40
2022-08-02T00:50:00.956Z,1015.44
2022-08-02T00:51:00.958Z,1015.42
2022-08-02T00:52:00.929Z,1015.38
2022-08-02T00:53:00.934Z,1015.32
2022-08-02T00:54:00.922Z,1015.34
2022-08-02T00:55:00.901Z,1015.29
2022-08-02T00:56:00.885Z,1015.26
2022-08-02T00:57:00.880Z,1015.25
2022-08-02T00:58:00.840Z,1015.24
2022-08-02T00:59:00.846Z,1015.27
2022-08-02T01:00:00.813Z,1015.25
2022-08-02T01:01:00.886Z,1015.26
2022-08-02T01:02:00.826Z,1015.23
2022-08-02T01:03:00.779Z,1015.26
2022-08-02T01:04:00.768Z,1015.25
2022-08-02T01:05:00.776Z,1015.30
2022-08-02T01:06:15.920Z,1015.28
2022-08-02T01:07:01.728Z,1015.33
2022-08-02T01:08:00.718Z,1015.36
2022-08-02T01:09:00.702Z,1015.30
2022-08-02T01:10:00.692Z,1015.37
2022-08-02T01:11:00.704Z,1015.34
2022-08-02T01:12:02.802Z,1015.30
2022-08-02T01:13:00.663Z,1015.28
2022-08-02T01:14:00.629Z,1015.29
2022-08-02T01:15:00.618Z,1015.31
2022-08-02T01:16:00.629Z,1015.24
2022-08-02T01:17:00.590Z,1015.27
2022-08-02T01:18:00.578Z,1015.26
2022-08-02T01:19:00.583Z,1015.29
2022-08-02T01:20:00.609Z,1015.31
2022-08-02T01:21:00.549Z,1015.29
2022-08-02T01:22:00.549Z,1015.31
2022-08-02T01:23:02.359Z,1015.29
2022-08-02T01:24:00.524Z,1015.32
2022-08-02T01:25:00.495Z,1015.26
2022-08-02T01:26:00.488Z,1015.37
2022-08-02T01:27:00.491Z,1015.28
2022-08-02T01:28:00.472Z,1015.30
2022-08-02T01:29:00.452Z,1015.29
2022-08-02T01:30:00.431Z,1015.28
2022-08-02T01:31:00.430Z,1015.31
2022-08-02T01:32:00.469Z,1015.25
2022-08-02T01:33:00.399Z,1015.25
2022-08-02T01:34:00.385Z,1015.25
2022-08-02T01:35:00.374Z,1015.23
2022-08-02T01:36:00.383Z,1015.24
2022-08-02T01:37:00.327Z,1015.30
2022-08-02T01:38:00.318Z,1015.28
2022-08-02T01:39:00.307Z,1015.24
2022-08-02T01:40:00.305Z,1015.26
2022-08-02T01:41:00.321Z,1015.26
2022-08-02T01:42:00.288Z,1015.23
2022-08-02T01:43:00.257Z,1015.29
2022-08-02T01:44:00.243Z,1015.23
2022-08-02T01:45:00.247Z,1015.27
2022-08-02T01:46:00.248Z,1015.26
2022-08-02T01:47:00.213Z,1015.31
2022-08-02T01:48:00.201Z,1015.30
2022-08-02T01:49:00.262Z,1015.31
2022-08-02T01:50:00.206Z,1015.31
2022-08-02T01:51:00.163Z,1015.19
2022-08-02T01:52:00.141Z,1015.14
2022-08-02T01:53:00.145Z,1015.21
2022-08-02T01:54:00.128Z,1015.17
2022-08-02T01:55:00.101Z,1015.19
2022-08-02T01:56:00.114Z,1015.22
2022-08-02T01:57:00.092Z,1015.20
2022-08-02T01:58:00.059Z,1015.18
2022-08-02T01:59:00.061Z,1015.18
2022-08-02T02:00:00.035Z,1015.15
2022-08-02T02:01:00.187Z,1015.10
2022-08-02T02:02:00.023Z,1015.17
2022-08-02T02:02:59.985Z,1015.21
2022-08-02T02:03:59.977Z,1015.12
2022-08-02T02:04:59.961Z,1015.18
2022-08-02T02:05:59.965Z,1015.12
2022-08-02T02:06:59.937Z,1015.12
2022-08-02T02:07:59.939Z,1015.09
2022-08-02T02:08:59.931Z,1015.15
2022-08-02T02:09:59.913Z,1015.12
2022-08-02T02:12:09.654Z,1015.11
2022-08-02T02:12:10.133Z,1015.13
2022-08-02T02:13:00.870Z,1015.07
2022-08-02T02:13:59.864Z,1015.06
2022-08-02T02:14:59.825Z,1015.09
2022-08-02T02:15:59.849Z,1015.07
2022-08-02T02:16:59.821Z,1015.08
2022-08-02T02:18:13.253Z,1015.08
2022-08-02T02:19:00.778Z,1015.07
2022-08-02T02:19:59.778Z,1015.01
2022-08-02T02:20:59.776Z,1014.99
2022-08-02T02:21:59.758Z,1015.05
2022-08-02T02:22:59.725Z,1014.98
2022-08-02T02:23:59.728Z,1014.96
2022-08-02T02:24:59.695Z,1014.99
2022-08-02T02:25:59.710Z,1014.95
2022-08-02T02:26:59.688Z,1014.94
2022-08-02T02:27:59.676Z,1014.97
2022-08-02T02:28:59.641Z,1014.96
2022-08-02T02:29:59.649Z,1014.94
2022-08-02T02:30:59.625Z,1014.95
2022-08-02T02:31:59.617Z,1014.94
2022-08-02T02:32:59.610Z,1014.93
2022-08-02T02:33:59.584Z,1014.95
2022-08-02T02:34:59.590Z,1014.87
2022-08-02T02:35:59.595Z,1014.89
2022-08-02T02:36:59.545Z,1014.92
2022-08-02T02:37:59.534Z,1015.05
2022-08-02T02:38:59.518Z,1015.02
2022-08-02T02:39:59.514Z,1014.96
2022-08-02T02:40:59.505Z,1014.97
2022-08-02T02:41:59.488Z,1015.01
2022-08-02T02:42:59.487Z,1014.94
2022-08-02T02:43:59.477Z,1014.96
2022-08-02T02:44:59.484Z,1014.98
2022-08-02T02:45:59.442Z,1014.93
2022-08-02T02:46:59.416Z,1014.95
2022-08-02T02:47:59.404Z,1014.98
2022-08-02T02:48:59.440Z,1014.95
2022-08-02T02:49:59.375Z,1014.96
2022-08-02T02:50:59.385Z,1014.96
2022-08-02T02:51:59.369Z,1015.03
2022-08-02T02:52:59.331Z,1014.99
2022-08-02T02:54:29.823Z,1014.95
2022-08-02T02:55:00.305Z,1014.97
2022-08-02T02:56:02.592Z,1014.97
2022-08-02T02:56:59.285Z,1014.96
2022-08-02T02:57:59.292Z,1014.96
2022-08-02T02:58:59.257Z,1014.95
2022-08-02T02:59:59.256Z,1014.91
2022-08-02T03:00:59.279Z,1014.93
2022-08-02T03:01:59.302Z,1014.92
2022-08-02T03:02:59.217Z,1014.93
2022-08-02T03:03:59.197Z,1014.84
2022-08-02T03:04:59.172Z,1014.84
2022-08-02T03:05:59.197Z,1014.87
2022-08-02T03:06:59.156Z,1014.87
2022-08-02T03:07:59.142Z,1014.83
2022-08-02T03:08:59.134Z,1014.77
2022-08-02T03:09:59.103Z,1014.77
2022-08-02T03:10:59.102Z,1014.74
2022-08-02T03:11:59.096Z,1014.78
2022-08-02T03:12:59.086Z,1014.81
2022-08-02T03:13:59.075Z,1014.80
2022-08-02T03:14:59.052Z,1014.75
2022-08-02T03:15:59.073Z,1014.73
2022-08-02T03:16:59.021Z,1014.80
2022-08-02T03:17:59.003Z,1014.75
2022-08-02T03:18:59.016Z,1014.76
2022-08-02T03:19:58.997Z,1014.73
2022-08-02T03:20:58.985Z,1014.73
2022-08-02T03:21:58.966Z,1014.75
2022-08-02T03:22:58.955Z,1014.83
2022-08-02T03:23:58.946Z,1014.83
2022-08-02T03:24:58.926Z,1014.83
2022-08-02T03:25:58.927Z,1014.81
2022-08-02T03:26:58.903Z,1014.83
2022-08-02T03:27:58.888Z,1014.81
2022-08-02T03:28:58.861Z,1014.79
2022-08-02T03:29:58.873Z,1014.80
2022-08-02T03:30:58.862Z,1014.76
2022-08-02T03:31:58.823Z,1014.79
2022-08-02T03:32:58.825Z,1014.77
2022-08-02T03:33:58.805Z,1014.76
2022-08-02T03:34:58.806Z,1014.80
2022-08-02T03:35:58.782Z,1014.75
2022-08-02T03:36:58.762Z,1014.81
2022-08-02T03:37:58.751Z,1014.74
2022-08-02T03:38:58.732Z,1014.74
2022-08-02T03:39:58.733Z,1014.75
2022-08-02T03:40:58.727Z,1014.75
2022-08-02T03:41:58.701Z,1014.76
2022-08-02T03:42:58.679Z,1014.70
2022-08-02T03:43:58.667Z,1014.80
2022-08-02T03:44:58.660Z,1014.78
2022-08-02T03:45:58.664Z,1014.75
2022-08-02T03:46:58.630Z,1014.78
2022-08-02T03:47:59.080Z,1014.80
2022-08-02T03:48:58.692Z,1014.82
2022-08-02T03:49:58.600Z,1014.80
2022-08-02T03:50:58.607Z,1014.79
2022-08-02T03:51:58.574Z,1014.72
2022-08-02T03:52:58.559Z,1014.71
2022-08-02T03:53:58.546Z,1014.69
2022-08-02T03:54:58.521Z,1014.74
2022-08-02T03:55:58.543Z,1014.74
2022-08-02T03:56:58.509Z,1014.74
2022-08-02T03:57:58.496Z,1014.80
2022-08-02T03:58:58.483Z,1014.81
2022-08-02T03:59:58.466Z,1014.80
2022-08-02T04:00:58.519Z,1014.79
2022-08-02T04:01:58.454Z,1014.87
2022-08-02T04:02:59.429Z,1014.77
2022-08-02T04:03:58.425Z,1014.75
2022-08-02T04:04:58.398Z,1014.78
2022-08-02T04:05:59.341Z,1014.77
2022-08-02T04:06:59.379Z,1014.69
2022-08-02T04:08:33.657Z,1014.68
2022-08-02T04:08:59.356Z,1014.71
2022-08-02T04:09:58.339Z,1014.71
2022-08-02T04:10:58.318Z,1014.74
2022-08-02T04:11:58.337Z,1014.73
2022-08-02T04:12:58.300Z,1014.78
2022-08-02T04:13:58.304Z,1014.81
2022-08-02T04:14:58.279Z,1014.79
2022-08-02T04:15:58.274Z,1014.77
2022-08-02T04:16:58.262Z,1014.76
2022-08-02T04:17:58.231Z,1014.73
2022-08-02T04:18:58.208Z,1014.80
2022-08-02T04:19:58.224Z,1014.74
2022-08-02T04:20:58.201Z,1014.80
2022-08-02T04:21:58.190Z,1014.75
2022-08-02T04:22:58.172Z,1014.82
2022-08-02T04:23:58.165Z,1014.82
2022-08-02T04:24:58.149Z,1014.81
2022-08-02T04:25:58.132Z,1014.88
2022-08-02T04:27:06.523Z,1014.90
2022-08-02T04:28:16.598Z,1014.87
2022-08-02T04:28:59.092Z,1014.90
2022-08-02T04:29:58.079Z,1014.86
2022-08-02T04:30:58.083Z,1014.90
2022-08-02T04:31:58.073Z,1014.92
2022-08-02T04:32:58.037Z,1014.90
2022-08-02T04:33:58.017Z,1014.92
2022-08-02T04:35:59.799Z,1014.95
2022-08-02T04:36:57.989Z,1014.94
2022-08-02T04:38:09.160Z,1014.96
2022-08-02T04:38:58.973Z,1014.96
2022-08-02T04:39:58.023Z,1014.95
2022-08-02T04:40:57.941Z,1014.94
2022-08-02T04:41:58.122Z,1014.97
2022-08-02T04:42:57.912Z,1014.97
2022-08-02T04:43:57.890Z,1014.96
2022-08-02T04:44:57.881Z,1014.93
2022-08-02T04:45:57.886Z,1014.95
2022-08-02T04:46:57.872Z,1014.86
2022-08-02T04:48:06.153Z,1014.90
2022-08-02T04:48:58.849Z,1014.88
2022-08-02T04:49:57.833Z,1014.89
2022-08-02T04:50:57.789Z,1014.89
2022-08-02T04:51:57.831Z,1014.99
2022-08-02T04:52:57.781Z,1014.92
2022-08-02T04:54:05.454Z,1014.94
2022-08-02T04:54:58.738Z,1014.90
2022-08-02T04:55:57.748Z,1014.97
2022-08-02T04:56:57.739Z,1014.95
2022-08-02T04:57:58.100Z,1014.96
2022-08-02T04:58:57.691Z,1014.95
2022-08-02T04:59:57.700Z,1014.95
2022-08-02T05:00:57.737Z,1014.89
2022-08-02T05:01:57.662Z,1014.92
2022-08-02T05:02:57.660Z,1014.87
2022-08-02T05:03:57.635Z,1014.88
2022-08-02T05:04:57.632Z,1014.89
2022-08-02T05:05:57.619Z,1014.94
2022-08-02T05:06:57.619Z,1014.95
2022-08-02T05:07:57.587Z,1014.89
2022-08-02T05:08:57.566Z,1014.94
2022-08-02T05:09:57.590Z,1014.96
2022-08-02T05:10:57.550Z,1014.98
2022-08-02T05:11:57.527Z,1015.01
2022-08-02T05:12:57.535Z,1014.99
2022-08-02T05:13:59.149Z,1015.06
2022-08-02T05:14:57.490Z,1014.99
2022-08-02T05:15:57.520Z,1015.04
2022-08-02T05:16:57.479Z,1014.99
2022-08-02T05:17:57.469Z,1015.01
2022-08-02T05:18:57.438Z,1015.06
2022-08-02T05:19:57.437Z,1015.08
2022-08-02T05:20:58.328Z,1015.04
2022-08-02T05:21:57.421Z,1015.04
2022-08-02T05:22:57.383Z,1015.07
2022-08-02T05:23:58.151Z,1015.09
2022-08-02T05:24:57.352Z,1015.08
2022-08-02T05:25:57.364Z,1015.03
2022-08-02T05:26:57.349Z,1015.04
2022-08-02T05:27:57.352Z,1015.09
2022-08-02T05:28:57.318Z,1015.07
2022-08-02T05:29:57.309Z,1015.01
2022-08-02T05:30:57.288Z,1015.02
2022-08-02T05:31:57.264Z,1015.04
2022-08-02T05:32:57.271Z,1015.03
2022-08-02T05:33:57.253Z,1014.96
2022-08-02T05:34:57.223Z,1014.96
2022-08-02T05:35:57.263Z,1014.97
2022-08-02T05:36:57.226Z,1014.96
2022-08-02T05:37:57.193Z,1015.02
2022-08-02T05:39:04.735Z,1015.05
2022-08-02T05:39:58.186Z,1015.04
2022-08-02T05:40:57.159Z,1015.00
2022-08-02T05:41:57.162Z,1015.05
2022-08-02T05:42:57.154Z,1014.98
2022-08-02T05:43:57.127Z,1015.01
2022-08-02T05:44:57.105Z,1014.97
2022-08-02T05:45:57.119Z,1014.98
2022-08-02T05:46:57.068Z,1014.95
2022-08-02T05:47:57.055Z,1014.97
2022-08-02T05:48:57.105Z,1015.01
2022-08-02T05:49:57.047Z,1014.98
2022-08-02T05:50:57.022Z,1014.97
2022-08-02T05:51:57.134Z,1015.02
2022-08-02T05:52:57.005Z,1015.08
2022-08-02T05:53:59.260Z,1015.04
2022-08-02T05:54:56.964Z,1015.07
2022-08-02T05:55:56.964Z,1015.06
2022-08-02T05:56:56.955Z,1015.02
2022-08-02T05:57:56.966Z,1015.05
2022-08-02T05:58:56.911Z,1015.05
2022-08-02T05:59:56.932Z,1015.06
2022-08-02T06:00:56.909Z,1015.03
2022-08-02T06:01:56.911Z,1015.07
2022-08-02T06:02:56.863Z,1015.06
2022-08-02T06:03:56.874Z,1015.03
2022-08-02T06:04:56.847Z,1014.96
2022-08-02T06:05:56.843Z,1014.99
2022-08-02T06:06:56.805Z,1015.04
2022-08-02T06:07:56.817Z,1015.03
2022-08-02T06:08:56.795Z,1015.04
2022-08-02T06:09:56.790Z,1015.01
2022-08-02T06:10:56.777Z,1014.97
2022-08-02T06:12:01.817Z,1014.97
2022-08-02T06:12:57.733Z,1015.00
2022-08-02T06:13:56.727Z,1014.92
2022-08-02T06:14:56.716Z,1015.00
2022-08-02T06:15:56.726Z,1014.97
2022-08-02T06:16:56.681Z,1015.01
2022-08-02T06:17:56.707Z,1015.03
2022-08-02T06:18:56.675Z,1015.05
2022-08-02T06:19:56.656Z,1015.02
2022-08-02T06:20:56.654Z,1014.99
2022-08-02T06:22:34.574Z,1014.99
2022-08-02T06:22:57.625Z,1014.99
2022-08-02T06:23:58.562Z,1014.97
2022-08-02T06:24:56.582Z,1014.98
2022-08-02T06:25:56.566Z,1014.96
2022-08-02T06:26:56.590Z,1015.02
2022-08-02T06:27:56.595Z,1014.99
2022-08-02T06:28:56.522Z,1014.98
2022-08-02T06:29:56.523Z,1014.97
2022-08-02T06:30:56.509Z,1014.98
2022-08-02T06:31:56.483Z,1014.95
2022-08-02T06:32:56.481Z,1015.02
2022-08-02T06:33:56.485Z,1014.99
2022-08-02T06:34:56.470Z,1015.02
2022-08-02T06:35:56.453Z,1014.98
2022-08-02T06:36:56.421Z,1014.97
2022-08-02T06:37:58.885Z,1014.99
2022-08-02T06:38:56.425Z,1014.93
2022-08-02T06:39:56.403Z,1014.96
2022-08-02T06:40:56.361Z,1014.93
2022-08-02T06:41:56.360Z,1014.88
2022-08-02T06:42:56.350Z,1014.92
2022-08-02T06:43:56.330Z,1014.85
2022-08-02T06:44:58.046Z,1014.81
2022-08-02T06:45:56.350Z,1014.79
2022-08-02T06:47:11.113Z,1014.85
2022-08-02T06:47:57.287Z,1014.82
2022-08-02T06:48:56.325Z,1014.81
2022-08-02T06:49:56.294Z,1014.85
2022-08-02T06:50:56.259Z,1014.87
2022-08-02T06:51:56.251Z,1014.90
2022-08-02T06:52:56.225Z,1014.88
2022-08-02T06:53:56.202Z,1014.97
2022-08-02T06:54:56.185Z,1014.90
2022-08-02T06:55:56.203Z,1014.88
2022-08-02T06:56:56.159Z,1014.98
2022-08-02T06:57:56.159Z,1014.89
2022-08-02T06:58:56.130Z,1014.89
2022-08-02T06:59:56.137Z,1014.90
2022-08-02T07:00:56.119Z,1014.87
2022-08-02T07:01:56.137Z,1014.85
2022-08-02T07:02:56.095Z,1014.84
2022-08-02T07:03:56.104Z,1014.90
2022-08-02T07:04:56.083Z,1014.93
2022-08-02T07:05:56.040Z,1014.93
2022-08-02T07:06:56.053Z,1014.92
2022-08-02T07:07:56.009Z,1014.94
2022-08-02T07:09:19.419Z,1014.91
2022-08-02T07:10:00.956Z,1014.93
2022-08-02T07:10:55.998Z,1014.93
2022-08-02T07:11:55.992Z,1014.93
2022-08-02T07:12:59.616Z,1014.92
2022-08-02T07:13:55.939Z,1014.87
2022-08-02T07:14:55.918Z,1014.92
2022-08-02T07:15:55.945Z,1014.87
2022-08-02T07:16:55.907Z,1014.90
2022-08-02T07:17:55.892Z,1014.88
2022-08-02T07:18:55.871Z,1014.94
2022-08-02T07:19:55.869Z,1014.93
2022-08-02T07:20:55.845Z,1014.90
2022-08-02T07:22:00.520Z,1014.91
2022-08-02T07:22:56.861Z,1014.90
2022-08-02T07:23:55.831Z,1014.85
2022-08-02T07:24:55.807Z,1014.83
2022-08-02T07:26:02.374Z,1014.79
2022-08-02T07:27:10.738Z,1014.80
2022-08-02T07:27:56.759Z,1014.78
2022-08-02T07:28:55.738Z,1014.72
2022-08-02T07:29:55.800Z,1014.71
2022-08-02T07:30:55.741Z,1014.74
2022-08-02T07:31:55.698Z,1014.75
2022-08-02T07:32:55.717Z,1014.78
2022-08-02T07:33:55.678Z,1014.72
2022-08-02T07:34:55.724Z,1014.79
2022-08-02T07:35:55.660Z,1014.79
2022-08-02T07:36:55.652Z,1014.72
2022-08-02T07:38:02.023Z,1014.78
2022-08-02T07:38:56.639Z,1014.83
2022-08-02T07:39:55.609Z,1014.74
2022-08-02T07:40:55.592Z,1014.75
2022-08-02T07:41:55.586Z,1014.80
2022-08-02T07:43:02.452Z,1014.79
2022-08-02T07:43:56.538Z,1014.75
2022-08-02T07:44:55.570Z,1014.75
2022-08-02T07:45:57.343Z,1014.70
2022-08-02T07:46:56.509Z,1014.78
2022-08-02T07:47:55.509Z,1014.68
2022-08-02T07:48:55.512Z,1014.72
2022-08-02T07:49:55.467Z,1014.76
2022-08-02T07:50:55.457Z,1014.76
2022-08-02T07:51:55.439Z,1014.73
2022-08-02T07:52:57.482Z,1014.74
2022-08-02T07:54:02.767Z,1014.76
2022-08-02T07:54:56.443Z,1014.76
2022-08-02T07:55:55.379Z,1014.74
2022-08-02T07:56:58.201Z,1014.76
2022-08-02T07:57:55.377Z,1014.79
2022-08-02T07:58:55.362Z,1014.72
2022-08-02T07:59:55.342Z,1014.72
2022-08-02T08:00:55.340Z,1014.72
2022-08-02T08:01:55.403Z,1014.72
2022-08-02T08:02:58.818Z,1014.72
2022-08-02T08:03:55.278Z,1014.69
2022-08-02T08:04:55.266Z,1014.64
2022-08-02T08:05:55.270Z,1014.66
2022-08-02T08:06:55.247Z,1014.67
2022-08-02T08:07:55.231Z,1014.66
2022-08-02T08:08:55.256Z,1014.60
2022-08-02T08:09:56.409Z,1014.57
2022-08-02T08:10:55.223Z,1014.58
2022-08-02T08:11:55.196Z,1014.60
2022-08-02T08:12:55.178Z,1014.61
2022-08-02T08:13:55.164Z,1014.56
2022-08-02T08:14:55.172Z,1014.59
2022-08-02T08:15:55.147Z,1014.55
2022-08-02T08:16:55.138Z,1014.57
2022-08-02T08:17:55.108Z,1014.54
2022-08-02T08:18:55.108Z,1014.47
2022-08-02T08:19:55.088Z,1014.50
2022-08-02T08:20:55.118Z,1014.56
2022-08-02T08:21:55.070Z,1014.54
2022-08-02T08:22:55.080Z,1014.54
2022-08-02T08:23:55.038Z,1014.62
2022-08-02T08:24:55.016Z,1014.53
2022-08-02T08:25:54.986Z,1014.52
2022-08-02T08:26:55.030Z,1014.53
2022-08-02T08:27:54.962Z,1014.54
2022-08-02T08:28:54.966Z,1014.54
2022-08-02T08:29:54.935Z,1014.48
2022-08-02T08:30:54.949Z,1014.46
2022-08-02T08:31:54.935Z,1014.54
2022-08-02T08:32:54.941Z,1014.46
2022-08-02T08:33:54.910Z,1014.44
2022-08-02T08:34:54.909Z,1014.46
2022-08-02T08:35:54.875Z,1014.47
2022-08-02T08:36:54.857Z,1014.47
2022-08-02T08:37:54.859Z,1014.43
2022-08-02T08:38:54.879Z,1014.41
2022-08-02T08:39:57.862Z,1014.40
2022-08-02T08:40:54.824Z,1014.41
2022-08-02T08:41:54.799Z,1014.36
2022-08-02T08:42:54.790Z,1014.42
2022-08-02T08:43:54.777Z,1014.40
2022-08-02T08:44:54.777Z,1014.41
2022-08-02T08:45:55.879Z,1014.41
2022-08-02T08:46:54.737Z,1014.37
2022-08-02T08:47:54.734Z,1014.38
2022-08-02T08:48:54.750Z,1014.40
2022-08-02T08:49:54.700Z,1014.34
2022-08-02T08:50:54.702Z,1014.46
2022-08-02T08:51:54.678Z,1014.42
2022-08-02T08:52:54.675Z,1014.41
2022-08-02T08:53:54.658Z,1014.33
2022-08-02T08:54:54.648Z,1014.37
2022-08-02T08:55:54.645Z,1014.36
2022-08-02T08:56:54.636Z,1014.34
2022-08-02T08:57:54.604Z,1014.39
2022-08-02T08:58:54.585Z,1014.35
2022-08-02T08:59:54.570Z,1014.32
2022-08-02T09:00:54.587Z,1014.37
2022-08-02T09:01:54.601Z,1014.30
2022-08-02T09:02:54.580Z,1014.31
2022-08-02T09:03:54.518Z,1014.22
2022-08-02T09:04:55.462Z,1014.21
2022-08-02T09:05:54.489Z,1014.29
2022-08-02T09:06:54.490Z,1014.21
2022-08-02T09:07:54.459Z,1014.23
2022-08-02T09:08:54.454Z,1014.26
2022-08-02T09:09:54.424Z,1014.30
2022-08-02T09:10:54.430Z,1014.29
2022-08-02T09:11:54.414Z,1014.20
2022-08-02T09:12:54.391Z,1014.21
2022-08-02T09:13:54.386Z,1014.21
2022-08-02T09:14:54.375Z,1014.25
2022-08-02T09:15:54.367Z,1014.17
2022-08-02T09:16:54.348Z,1014.16
2022-08-02T09:17:54.332Z,1014.18
2022-08-02T09:18:54.326Z,1014.15
2022-08-02T09:19:54.297Z,1014.18
2022-08-02T09:20:54.337Z,1014.09
2022-08-02T09:21:54.293Z,1014.12
2022-08-02T09:22:54.276Z,1014.09
2022-08-02T09:23:54.248Z,1014.04
2022-08-02T09:24:54.237Z,1014.06
2022-08-02T09:25:58.943Z,1014.09
2022-08-02T09:26:55.238Z,1014.06
2022-08-02T09:27:54.203Z,1014.03
2022-08-02T09:28:54.185Z,1014.06
2022-08-02T09:30:12.684Z,1014.02
2022-08-02T09:30:55.167Z,1013.99
2022-08-02T09:31:54.139Z,1013.99
2022-08-02T09:32:54.157Z,1014.01
2022-08-02T09:33:54.124Z,1013.98
2022-08-02T09:34:54.091Z,1013.93
2022-08-02T09:36:05.342Z,1013.93
2022-08-02T09:36:55.074Z,1013.97
2022-08-02T09:37:54.051Z,1013.96
2022-08-02T09:38:54.074Z,1013.91
2022-08-02T09:39:57.014Z,1013.99
2022-08-02T09:40:55.037Z,1013.92
2022-08-02T09:41:54.018Z,1013.96
2022-08-02T09:42:54.003Z,1013.98
2022-08-02T09:44:05.310Z,1013.98
2022-08-02T09:44:55.010Z,1013.99
2022-08-02T09:45:53.960Z,1013.97
2022-08-02T09:46:53.958Z,1014.01
2022-08-02T09:47:53.934Z,1013.95
2022-08-02T09:48:54.013Z,1013.95
2022-08-02T09:49:53.916Z,1013.95
2022-08-02T09:50:53.936Z,1014.02
2022-08-02T09:51:53.865Z,1013.92
2022-08-02T09:52:53.877Z,1013.99
2022-08-02T09:54:05.996Z,1013.96
2022-08-02T09:54:54.842Z,1013.91
2022-08-02T09:55:53.837Z,1014.00
2022-08-02T09:56:53.815Z,1013.96
2022-08-02T09:57:53.817Z,1013.94
2022-08-02T09:59:01.371Z,1014.02
2022-08-02T09:59:53.810Z,1013.98
2022-08-02T10:00:53.829Z,1014.02
2022-08-02T10:02:16.817Z,1014.00
2022-08-02T10:02:54.787Z,1014.01
2022-08-02T10:03:53.707Z,1014.01
2022-08-02T10:04:54.112Z,1013.98
2022-08-02T10:05:55.715Z,1013.94
2022-08-02T10:06:53.678Z,1013.95
2022-08-02T10:07:53.689Z,1013.92
2022-08-02T10:08:53.692Z,1013.94
2022-08-02T10:09:53.638Z,1013.97
2022-08-02T10:10:53.634Z,1013.96
2022-08-02T10:11:53.633Z,1013.89
2022-08-02T10:12:53.611Z,1013.93
2022-08-02T10:13:53.587Z,1013.94
2022-08-02T10:14:53.624Z,1013.87
2022-08-02T10:15:53.581Z,1013.92
2022-08-02T10:16:53.582Z,1013.90
2022-08-02T10:17:53.566Z,1013.95
2022-08-02T10:18:53.528Z,1013.91
2022-08-02T10:20:01.800Z,1013.81
2022-08-02T10:20:54.530Z,1013.85
2022-08-02T10:21:53.479Z,1013.86
2022-08-02T10:22:53.467Z,1013.85
2022-08-02T10:23:53.463Z,1013.75
2022-08-02T10:24:53.445Z,1013.84
2022-08-02T10:25:53.446Z,1013.82
2022-08-02T10:26:53.479Z,1013.74
2022-08-02T10:28:05.114Z,1013.77
2022-08-02T10:28:54.417Z,1013.79
2022-08-02T10:29:54.886Z,1013.72
2022-08-02T10:30:53.441Z,1013.75
2022-08-02T10:31:53.370Z,1013.69
2022-08-02T10:32:53.401Z,1013.64
2022-08-02T10:33:53.339Z,1013.65
2022-08-02T10:34:53.391Z,1013.62
2022-08-02T10:36:04.499Z,1013.65
2022-08-02T10:36:54.306Z,1013.63
2022-08-02T10:37:53.297Z,1013.63
2022-08-02T10:38:53.290Z,1013.66
2022-08-02T10:39:53.269Z,1013.61
2022-08-02T10:40:53.251Z,1013.60
2022-08-02T10:41:53.250Z,1013.65
2022-08-02T10:42:53.219Z,1013.62
2022-08-02T10:43:53.196Z,1013.61
2022-08-02T10:44:53.196Z,1013.64
2022-08-02T10:45:53.190Z,1013.63
2022-08-02T10:46:53.156Z,1013.54
2022-08-02T10:47:53.450Z,1013.56
2022-08-02T10:48:53.190Z,1013.49
2022-08-02T10:49:53.131Z,1013.52
2022-08-02T10:50:53.179Z,1013.50
2022-08-02T10:51:53.127Z,1013.48
2022-08-02T10:52:53.121Z,1013.53
2022-08-02T10:53:53.076Z,1013.52
2022-08-02T10:54:53.173Z,1013.39
2022-08-02T10:55:53.078Z,1013.34
2022-08-02T10:56:53.046Z,1013.40
2022-08-02T10:57:53.056Z,1013.44
2022-08-02T10:58:53.025Z,1013.45
2022-08-02T10:59:52.996Z,1013.45
2022-08-02T11:00:53.072Z,1013.49
2022-08-02T11:01:52.988Z,1013.44
2022-08-02T11:02:54.025Z,1013.51
2022-08-02T11:03:52.958Z,1013.43
2022-08-02T11:04:53.002Z,1013.46
2022-08-02T11:05:52.937Z,1013.54
2022-08-02T11:06:52.905Z,1013.48
2022-08-02T11:07:52.909Z,1013.53
2022-08-02T11:08:52.906Z,1013.47
2022-08-02T11:09:52.899Z,1013.51
2022-08-02T11:10:52.909Z,1013.49
2022-08-02T11:11:54.027Z,1013.47
2022-08-02T11:12:52.827Z,1013.46
2022-08-02T11:13:52.839Z,1013.46
2022-08-02T11:14:55.042Z,1013.45
2022-08-02T11:15:52.807Z,1013.49
2022-08-02T11:16:52.774Z,1013.45
2022-08-02T11:17:52.776Z,1013.37
2022-08-02T11:18:52.768Z,1013.42
2022-08-02T11:19:52.736Z,1013.41
2022-08-02T11:20:52.748Z,1013.36
2022-08-02T11:21:52.727Z,1013.48
2022-08-02T11:22:52.727Z,1013.40
2022-08-02T11:23:52.704Z,1013.39
2022-08-02T11:24:52.692Z,1013.42
2022-08-02T11:26:03.532Z,1013.37
2022-08-02T11:26:53.689Z,1013.44
2022-08-02T11:27:52.669Z,1013.37
2022-08-02T11:28:52.675Z,1013.31
2022-08-02T11:29:52.617Z,1013.35
2022-08-02T11:30:52.659Z,1013.42
2022-08-02T11:31:52.599Z,1013.41
2022-08-02T11:32:52.585Z,1013.37
2022-08-02T11:33:52.578Z,1013.36
2022-08-02T11:34:52.546Z,1013.34
2022-08-02T11:35:52.533Z,1013.37
2022-08-02T11:36:52.646Z,1013.39
2022-08-02T11:37:52.505Z,1013.33
2022-08-02T11:38:52.522Z,1013.34
2022-08-02T11:39:52.497Z,1013.39
2022-08-02T11:40:57.478Z,1013.41
2022-08-02T11:41:53.506Z,1013.35
2022-08-02T11:42:52.456Z,1013.39
2022-08-02T11:43:52.425Z,1013.42
2022-08-02T11:44:52.427Z,1013.38
2022-08-02T11:45:52.408Z,1013.30
2022-08-02T11:46:52.385Z,1013.34
2022-08-02T11:47:52.383Z,1013.32
2022-08-02T11:48:52.433Z,1013.32
2022-08-02T11:49:52.345Z,1013.35
2022-08-02T11:50:52.358Z,1013.29
2022-08-02T11:51:54.120Z,1013.38
2022-08-02T11:52:52.303Z,1013.38
2022-08-02T11:53:52.310Z,1013.33
2022-08-02T11:54:52.298Z,1013.33
2022-08-02T11:55:52.287Z,1013.37
2022-08-02T11:56:52.292Z,1013.33
2022-08-02T11:58:03.321Z,1013.32
2022-08-02T11:58:53.258Z,1013.27
2022-08-02T11:59:52.244Z,1013.29
2022-08-02T12:00:52.222Z,1013.23
2022-08-02T12:01:52.194Z,1013.23
2022-08-02T12:02:52.267Z,1013.23
2022-08-02T12:03:52.286Z,1013.21
2022-08-02T12:04:52.167Z,1013.22
2022-08-02T12:06:04.989Z,1013.23